Seastreak Highlands — WDE4031 — position and weather

sailwx.info

Track history (hours):
 
Tides and Currents Weather Stations Pressure Air Temp Water Temp Dewpoint Dewpoint Depression Visibility Wind Speed Wind Dir Waves Ship Positions

Seastreak Highlands

Owner: Seastreak llc, atlantic highlands, NJ. More information available from US FCC via Universal Licensing System and Coast Guard Vessel Documentation Center.

Last reported at 2015-Jan-24 02:20 UTC. Time now 2015-Jan-26 02:26 UTC.
Position N 40°25' W 073°60'.

Length 44 m; draft 2 m.

Type: High speed craft. MMSI: 367347670.

Date/timePositionNaut miles runAvg speedWind from/ knotsBaromVisibWave heightAir tempDewpointWater temp
2015-Jan-24 02:20N 40°25' W 073°60'7 8.5
2015-Jan-24 01:30N 40°31' W 074°02'8 8.7
2015-Jan-24 00:33N 40°40' W 074°02'6 3.7
2015-Jan-23 23:04N 40°34' W 074°02'815.7
2015-Jan-23 22:33N 40°42' W 074°00'7 6.9
2015-Jan-23 21:33N 40°35' W 074°02'8 8.5
2015-Jan-23 20:33N 40°27' W 074°01'1818.2
2015-Jan-23 19:33N 40°45' W 073°58'0 0.0
2015-Jan-23 18:33N 40°45' W 073°58'0 0.0
2015-Jan-23 17:33N 40°45' W 073°58'2 1.7
2015-Jan-23 16:34N 40°43' W 073°58'11 4.4
2015-Jan-23 14:08N 40°33' W 074°02'1221.6
2015-Jan-23 13:33N 40°45' W 073°58'2018.3
2015-Jan-23 12:29N 40°25' W 074°02'0 0.0
2015-Jan-21 14:30N 40°25' W 074°02'8 0.6
2015-Jan-21 01:07N 40°33' W 074°02'1119.7
2015-Jan-21 00:33N 40°44' W 073°58'3 1.3
2015-Jan-20 22:33N 40°42' W 074°00'4 3.8
2015-Jan-20 21:34N 40°38' W 074°02'13 2.4
2015-Jan-20 16:08N 40°25' W 074°02'0 0.0
2015-Jan-20 15:04N 40°25' W 074°02'0 0.0
2015-Jan-20 14:30N 40°25' W 074°02'0 0.0
2015-Jan-20 12:10N 40°25' W 074°02'0 0.0
2015-Jan-20 08:25N 40°25' W 074°02'0 0.0
2015-Jan-20 07:29N 40°25' W 074°02'0 0.0
2015-Jan-20 06:12N 40°25' W 074°02'0 0.0
2015-Jan-19 22:19N 40°25' W 074°02'0 0.0
2015-Jan-19 21:04N 40°25' W 074°02'0 0.0
2015-Jan-19 17:26N 40°25' W 074°02'0 0.0
2015-Jan-19 10:21N 40°25' W 074°02'0 0.0
2015-Jan-18 20:06N 40°25' W 074°02'0 0.0
2015-Jan-17 21:16N 40°25' W 074°02'0 0.0
2015-Jan-17 20:14N 40°25' W 074°02'0 0.0
2015-Jan-17 17:17N 40°25' W 074°02'0 0.0
2015-Jan-17 14:30N 40°25' W 074°02'0 0.0
2015-Jan-17 10:29N 40°25' W 074°02'0 0.0
2015-Jan-17 04:24N 40°25' W 074°02'0 0.0
2015-Jan-17 03:28N 40°25' W 074°02'0 0.0
2015-Jan-17 00:30N 40°25' W 074°02'0 0.0
2015-Jan-16 23:22N 40°25' W 074°02'0 0.0
2015-Jan-16 19:15N 40°25' W 074°02'0 0.0
2015-Jan-16 14:29N 40°25' W 074°02'0 0.0
2015-Jan-16 13:23N 40°25' W 074°02'0 0.0
2015-Jan-16 12:30N 40°25' W 074°02'0 0.0
2015-Jan-16 06:05N 40°25' W 074°02'0 0.0
2015-Jan-16 04:26N 40°25' W 074°02'0 0.0
2015-Jan-16 03:21N 40°25' W 074°02'0 0.0
2015-Jan-16 02:27N 40°25' W 074°02'0 0.0
2015-Jan-16 01:31N 40°25' W 074°02'0 0.0
2015-Jan-16 00:28N 40°25' W 074°02'0 0.0
2015-Jan-15 23:32N 40°25' W 074°02'0 0.0
2015-Jan-15 22:33N 40°25' W 074°02'0 0.0
2015-Jan-15 21:22N 40°25' W 074°02'0 0.0
2015-Jan-15 20:19N 40°25' W 074°02'0 0.0
2015-Jan-15 18:20N 40°25' W 074°02'0 0.0
2015-Jan-15 15:30N 40°25' W 074°02'0 0.0
2015-Jan-15 14:31N 40°25' W 074°02'0 0.0
2015-Jan-15 13:33N 40°25' W 074°02'0 0.0
2015-Jan-15 12:33N 40°25' W 074°02'0 0.0
2015-Jan-15 11:33N 40°25' W 074°02'0 0.0
2015-Jan-15 10:26N 40°25' W 074°02'0 0.0
2015-Jan-15 09:33N 40°25' W 074°02'0 0.0
2015-Jan-15 08:32N 40°25' W 074°02'0 0.0
2015-Jan-15 07:18N 40°25' W 074°02'0 0.0
2015-Jan-15 06:26N 40°25' W 074°02'0 0.0
2015-Jan-15 05:30N 40°25' W 074°02'0 0.0
2015-Jan-15 04:33N 40°25' W 074°02'0 0.0
2015-Jan-15 03:27N 40°25' W 074°02'0 0.0
2015-Jan-15 02:06N 40°25' W 074°02'0 0.0
2015-Jan-15 01:23N 40°25' W 074°02'0 0.0
2015-Jan-15 00:15N 40°25' W 074°02'0 0.0
2015-Jan-14 23:33N 40°25' W 074°02'0 0.0
2015-Jan-14 22:33N 40°25' W 074°02'0 0.0
2015-Jan-14 21:33N 40°25' W 074°02'0 0.0
2015-Jan-14 20:33N 40°25' W 074°02'0 0.0
2015-Jan-14 17:26N 40°25' W 074°02'  
Track history (hours):
 
Tides and Currents Weather Stations Pressure Air Temp Water Temp Dewpoint Dewpoint Depression Visibility Wind Speed Wind Dir Waves Ship Positions

Seastreak Highlands

Owner: Seastreak llc, atlantic highlands, NJ. More information available from US FCC via Universal Licensing System and Coast Guard Vessel Documentation Center.

Last reported at 2015-Jan-24 02:20 UTC. Time now 2015-Jan-26 02:26 UTC.
Position N 40°25' W 073°60'.

Length 44 m; draft 2 m.

Type: High speed craft. MMSI: 367347670.

Date/timePositionNaut miles runAvg speedWind from/ knotsBaromVisibWave heightAir tempDewpointWater temp
2015-Jan-24 02:20N 40°25' W 073°60'7 8.5
2015-Jan-24 01:30N 40°31' W 074°02'8 8.7
2015-Jan-24 00:33N 40°40' W 074°02'6 3.7
2015-Jan-23 23:04N 40°34' W 074°02'815.7
2015-Jan-23 22:33N 40°42' W 074°00'7 6.9
2015-Jan-23 21:33N 40°35' W 074°02'8 8.5
2015-Jan-23 20:33N 40°27' W 074°01'1818.2
2015-Jan-23 19:33N 40°45' W 073°58'0 0.0
2015-Jan-23 18:33N 40°45' W 073°58'0 0.0
2015-Jan-23 17:33N 40°45' W 073°58'2 1.7
2015-Jan-23 16:34N 40°43' W 073°58'11 4.4
2015-Jan-23 14:08N 40°33' W 074°02'1221.6
2015-Jan-23 13:33N 40°45' W 073°58'2018.3
2015-Jan-23 12:29N 40°25' W 074°02'0 0.0
2015-Jan-21 14:30N 40°25' W 074°02'8 0.6
2015-Jan-21 01:07N 40°33' W 074°02'1119.7
2015-Jan-21 00:33N 40°44' W 073°58'3 1.3
2015-Jan-20 22:33N 40°42' W 074°00'4 3.8
2015-Jan-20 21:34N 40°38' W 074°02'13 2.4
2015-Jan-20 16:08N 40°25' W 074°02'0 0.0
2015-Jan-20 15:04N 40°25' W 074°02'0 0.0
2015-Jan-20 14:30N 40°25' W 074°02'0 0.0
2015-Jan-20 12:10N 40°25' W 074°02'0 0.0
2015-Jan-20 08:25N 40°25' W 074°02'0 0.0
2015-Jan-20 07:29N 40°25' W 074°02'0 0.0
2015-Jan-20 06:12N 40°25' W 074°02'0 0.0
2015-Jan-19 22:19N 40°25' W 074°02'0 0.0
2015-Jan-19 21:04N 40°25' W 074°02'0 0.0
2015-Jan-19 17:26N 40°25' W 074°02'0 0.0
2015-Jan-19 10:21N 40°25' W 074°02'0 0.0
2015-Jan-18 20:06N 40°25' W 074°02'0 0.0
2015-Jan-17 21:16N 40°25' W 074°02'0 0.0
2015-Jan-17 20:14N 40°25' W 074°02'0 0.0
2015-Jan-17 17:17N 40°25' W 074°02'0 0.0
2015-Jan-17 14:30N 40°25' W 074°02'0 0.0
2015-Jan-17 10:29N 40°25' W 074°02'0 0.0
2015-Jan-17 04:24N 40°25' W 074°02'0 0.0
2015-Jan-17 03:28N 40°25' W 074°02'0 0.0
2015-Jan-17 00:30N 40°25' W 074°02'0 0.0
2015-Jan-16 23:22N 40°25' W 074°02'0 0.0
2015-Jan-16 19:15N 40°25' W 074°02'0 0.0
2015-Jan-16 14:29N 40°25' W 074°02'0 0.0
2015-Jan-16 13:23N 40°25' W 074°02'0 0.0
2015-Jan-16 12:30N 40°25' W 074°02'0 0.0
2015-Jan-16 06:05N 40°25' W 074°02'0 0.0
2015-Jan-16 04:26N 40°25' W 074°02'0 0.0
2015-Jan-16 03:21N 40°25' W 074°02'0 0.0
2015-Jan-16 02:27N 40°25' W 074°02'0 0.0
2015-Jan-16 01:31N 40°25' W 074°02'0 0.0
2015-Jan-16 00:28N 40°25' W 074°02'0 0.0
2015-Jan-15 23:32N 40°25' W 074°02'0 0.0
2015-Jan-15 22:33N 40°25' W 074°02'0 0.0
2015-Jan-15 21:22N 40°25' W 074°02'0 0.0
2015-Jan-15 20:19N 40°25' W 074°02'0 0.0
2015-Jan-15 18:20N 40°25' W 074°02'0 0.0
2015-Jan-15 15:30N 40°25' W 074°02'0 0.0
2015-Jan-15 14:31N 40°25' W 074°02'0 0.0
2015-Jan-15 13:33N 40°25' W 074°02'0 0.0
2015-Jan-15 12:33N 40°25' W 074°02'0 0.0
2015-Jan-15 11:33N 40°25' W 074°02'0 0.0
2015-Jan-15 10:26N 40°25' W 074°02'0 0.0
2015-Jan-15 09:33N 40°25' W 074°02'0 0.0
2015-Jan-15 08:32N 40°25' W 074°02'0 0.0
2015-Jan-15 07:18N 40°25' W 074°02'0 0.0
2015-Jan-15 06:26N 40°25' W 074°02'0 0.0
2015-Jan-15 05:30N 40°25' W 074°02'0 0.0
2015-Jan-15 04:33N 40°25' W 074°02'0 0.0
2015-Jan-15 03:27N 40°25' W 074°02'0 0.0
2015-Jan-15 02:06N 40°25' W 074°02'0 0.0
2015-Jan-15 01:23N 40°25' W 074°02'0 0.0
2015-Jan-15 00:15N 40°25' W 074°02'0 0.0
2015-Jan-14 23:33N 40°25' W 074°02'0 0.0
2015-Jan-14 22:33N 40°25' W 074°02'0 0.0
2015-Jan-14 21:33N 40°25' W 074°02'0 0.0
2015-Jan-14 20:33N 40°25' W 074°02'0 0.0
2015-Jan-14 17:26N 40°25' W 074°02'  

Dump ship's entire track history